sensor_id;sensor_type;location;lat;lon;timestamp;temperature;humidity
70593;DHT22;58294;42.988;20.338;2023-02-10T00:01:09;141.50;2176.00
70593;DHT22;58294;42.988;20.338;2023-02-10T00:03:36;141.50;2176.00
70593;DHT22;58294;42.988;20.338;2023-02-10T00:06:03;141.50;2176.00
70593;DHT22;58294;42.988;20.338;2023-02-10T00:08:29;141.60;2176.00
70593;DHT22;58294;42.988;20.338;2023-02-10T00:10:59;141.70;2176.00
70593;DHT22;58294;42.988;20.338;2023-02-10T00:13:26;166.40;2176.00
70593;DHT22;58294;42.988;20.338;2023-02-10T00:15:52;166.40;2176.00
70593;DHT22;58294;42.988;20.338;2023-02-10T00:18:18;166.50;2176.00
70593;DHT22;58294;42.988;20.338;2023-02-10T00:20:44;166.50;2176.00
70593;DHT22;58294;42.988;20.338;2023-02-10T00:23:09;166.50;2176.00
70593;DHT22;58294;42.988;20.338;2023-02-10T00:25:35;166.50;2176.00
70593;DHT22;58294;42.988;20.338;2023-02-10T00:28:02;166.50;2176.00
70593;DHT22;58294;42.988;20.338;2023-02-10T00:30:29;166.50;2176.00
70593;DHT22;58294;42.988;20.338;2023-02-10T00:32:55;166.50;2176.00
70593;DHT22;58294;42.988;20.338;2023-02-10T00:35:24;166.50;2176.00
70593;DHT22;58294;42.988;20.338;2023-02-10T00:37:50;166.50;2176.00
70593;DHT22;58294;42.988;20.338;2023-02-10T00:40:16;166.50;2176.00
70593;DHT22;58294;42.988;20.338;2023-02-10T00:42:42;166.50;2176.00
70593;DHT22;58294;42.988;20.338;2023-02-10T00:45:08;166.50;2176.00
70593;DHT22;58294;42.988;20.338;2023-02-10T00:47:34;166.50;2176.00
70593;DHT22;58294;42.988;20.338;2023-02-10T00:50:00;166.50;2176.00
70593;DHT22;58294;42.988;20.338;2023-02-10T00:52:26;166.50;2176.00
70593;DHT22;58294;42.988;20.338;2023-02-10T00:54:52;166.50;2176.00
70593;DHT22;58294;42.988;20.338;2023-02-10T00:57:18;166.50;2176.00
70593;DHT22;58294;42.988;20.338;2023-02-10T00:59:43;166.60;2176.00
70593;DHT22;58294;42.988;20.338;2023-02-10T01:02:09;166.60;2176.00
70593;DHT22;58294;42.988;20.338;2023-02-10T01:04:36;166.60;2176.00
70593;DHT22;58294;42.988;20.338;2023-02-10T01:07:02;166.70;2176.00
70593;DHT22;58294;42.988;20.338;2023-02-10T01:09:28;166.80;2176.00
70593;DHT22;58294;42.988;20.338;2023-02-10T01:11:53;166.70;2176.00
70593;DHT22;58294;42.988;20.338;2023-02-10T01:14:19;166.70;2176.00
70593;DHT22;58294;42.988;20.338;2023-02-10T01:16:45;166.70;2176.00
70593;DHT22;58294;42.988;20.338;2023-02-10T01:19:11;166.70;2176.00
70593;DHT22;58294;42.988;20.338;2023-02-10T01:21:37;166.70;2176.00
70593;DHT22;58294;42.988;20.338;2023-02-10T01:24:05;166.70;2176.00
70593;DHT22;58294;42.988;20.338;2023-02-10T01:26:31;166.70;2176.00
70593;DHT22;58294;42.988;20.338;2023-02-10T01:28:57;166.60;2176.00
70593;DHT22;58294;42.988;20.338;2023-02-10T01:31:23;166.70;2176.00
70593;DHT22;58294;42.988;20.338;2023-02-10T01:33:53;166.70;2176.00
70593;DHT22;58294;42.988;20.338;2023-02-10T01:36:22;166.80;2176.00
70593;DHT22;58294;42.988;20.338;2023-02-10T01:38:48;166.80;2176.00
70593;DHT22;58294;42.988;20.338;2023-02-10T01:41:16;166.90;2176.00
70593;DHT22;58294;42.988;20.338;2023-02-10T01:46:30;167.00;2176.00
70593;DHT22;58294;42.988;20.338;2023-02-10T01:48:58;167.00;2176.00
70593;DHT22;58294;42.988;20.338;2023-02-10T01:51:33;167.00;2176.00
70593;DHT22;58294;42.988;20.338;2023-02-10T01:54:01;167.10;2176.00
70593;DHT22;58294;42.988;20.338;2023-02-10T01:56:27;167.10;2176.00
70593;DHT22;58294;42.988;20.338;2023-02-10T01:58:53;167.10;2176.00
70593;DHT22;58294;42.988;20.338;2023-02-10T02:01:18;167.10;2176.00
70593;DHT22;58294;42.988;20.338;2023-02-10T02:03:44;167.10;2176.00
70593;DHT22;58294;42.988;20.338;2023-02-10T02:06:10;167.20;2176.00
70593;DHT22;58294;42.988;20.338;2023-02-10T02:08:37;167.20;2176.00
70593;DHT22;58294;42.988;20.338;2023-02-10T02:11:12;167.20;2176.00
70593;DHT22;58294;42.988;20.338;2023-02-10T02:17:20;167.30;2176.00
70593;DHT22;58294;42.988;20.338;2023-02-10T02:25:41;192.00;2176.00
70593;DHT22;58294;42.988;20.338;2023-02-10T02:34:00;192.10;2176.00
70593;DHT22;58294;42.988;20.338;2023-02-10T02:36:34;192.10;2176.00
70593;DHT22;58294;42.988;20.338;2023-02-10T02:39:03;192.20;2176.00
70593;DHT22;58294;42.988;20.338;2023-02-10T02:41:30;192.30;2176.00
70593;DHT22;58294;42.988;20.338;2023-02-10T02:43:57;192.30;2176.00
70593;DHT22;58294;42.988;20.338;2023-02-10T02:51:46;192.40;2176.00
70593;DHT22;58294;42.988;20.338;2023-02-10T03:02:31;192.50;2176.00
70593;DHT22;58294;42.988;20.338;2023-02-10T03:04:58;192.50;2176.00
70593;DHT22;58294;42.988;20.338;2023-02-10T03:07:24;192.50;2176.00
70593;DHT22;58294;42.988;20.338;2023-02-10T03:09:50;192.50;2176.00
70593;DHT22;58294;42.988;20.338;2023-02-10T03:12:16;192.50;2176.00
70593;DHT22;58294;42.988;20.338;2023-02-10T03:14:42;192.50;2176.00
70593;DHT22;58294;42.988;20.338;2023-02-10T03:17:08;192.60;2176.00
70593;DHT22;58294;42.988;20.338;2023-02-10T03:19:34;192.50;2176.00
70593;DHT22;58294;42.988;20.338;2023-02-10T03:22:00;192.50;2176.00
70593;DHT22;58294;42.988;20.338;2023-02-10T03:24:26;192.50;2176.00
70593;DHT22;58294;42.988;20.338;2023-02-10T03:26:52;192.50;2176.00
70593;DHT22;58294;42.988;20.338;2023-02-10T03:29:18;192.50;2176.00
70593;DHT22;58294;42.988;20.338;2023-02-10T03:31:43;192.50;2176.00
70593;DHT22;58294;42.988;20.338;2023-02-10T03:34:09;192.50;2176.00
70593;DHT22;58294;42.988;20.338;2023-02-10T03:36:35;192.50;2176.00
70593;DHT22;58294;42.988;20.338;2023-02-10T03:39:02;192.50;2176.00
70593;DHT22;58294;42.988;20.338;2023-02-10T03:41:28;192.50;2176.00
70593;DHT22;58294;42.988;20.338;2023-02-10T03:43:54;192.60;2176.00
70593;DHT22;58294;42.988;20.338;2023-02-10T03:46:20;192.60;2176.00
70593;DHT22;58294;42.988;20.338;2023-02-10T03:48:46;192.60;2176.00
70593;DHT22;58294;42.988;20.338;2023-02-10T03:51:13;192.60;2176.00
70593;DHT22;58294;42.988;20.338;2023-02-10T03:53:38;192.60;2176.00
70593;DHT22;58294;42.988;20.338;2023-02-10T03:56:05;192.70;2176.00
70593;DHT22;58294;42.988;20.338;2023-02-10T03:58:31;192.70;2176.00
70593;DHT22;58294;42.988;20.338;2023-02-10T04:00:56;192.60;2176.00
70593;DHT22;58294;42.988;20.338;2023-02-10T04:03:22;192.60;2176.00
70593;DHT22;58294;42.988;20.338;2023-02-10T04:05:48;192.60;2176.00
70593;DHT22;58294;42.988;20.338;2023-02-10T04:08:14;192.60;2176.00
70593;DHT22;58294;42.988;20.338;2023-02-10T04:10:39;192.70;2176.00
70593;DHT22;58294;42.988;20.338;2023-02-10T04:13:05;192.70;2176.00
70593;DHT22;58294;42.988;20.338;2023-02-10T04:15:31;192.70;2176.00
70593;DHT22;58294;42.988;20.338;2023-02-10T04:17:57;192.80;2176.00
70593;DHT22;58294;42.988;20.338;2023-02-10T04:20:24;192.80;2176.00
70593;DHT22;58294;42.988;20.338;2023-02-10T04:22:50;192.80;2176.00
70593;DHT22;58294;42.988;20.338;2023-02-10T04:25:15;192.80;2176.00
70593;DHT22;58294;42.988;20.338;2023-02-10T04:27:41;192.80;2176.00
70593;DHT22;58294;42.988;20.338;2023-02-10T04:30:08;192.90;2176.00
70593;DHT22;58294;42.988;20.338;2023-02-10T04:32:34;217.60;2176.00
70593;DHT22;58294;42.988;20.338;2023-02-10T04:35:00;217.60;2176.00
70593;DHT22;58294;42.988;20.338;2023-02-10T04:37:26;217.70;2150.40
70593;DHT22;58294;42.988;20.338;2023-02-10T04:39:52;217.70;2150.40
70593;DHT22;58294;42.988;20.338;2023-02-10T04:42:17;217.80;2150.40
70593;DHT22;58294;42.988;20.338;2023-02-10T04:44:43;217.80;2150.40
70593;DHT22;58294;42.988;20.338;2023-02-10T04:47:09;217.80;2150.40
70593;DHT22;58294;42.988;20.338;2023-02-10T04:49:35;217.70;2150.40
70593;DHT22;58294;42.988;20.338;2023-02-10T04:52:00;217.70;2150.40
70593;DHT22;58294;42.988;20.338;2023-02-10T04:54:26;217.80;2150.40
70593;DHT22;58294;42.988;20.338;2023-02-10T04:56:52;217.80;2150.40
70593;DHT22;58294;42.988;20.338;2023-02-10T04:59:18;217.80;2150.40
70593;DHT22;58294;42.988;20.338;2023-02-10T05:01:43;217.80;2150.40
70593;DHT22;58294;42.988;20.338;2023-02-10T05:04:09;217.80;2150.40
70593;DHT22;58294;42.988;20.338;2023-02-10T05:06:35;218.00;2150.40
70593;DHT22;58294;42.988;20.338;2023-02-10T05:09:01;218.00;2150.40
70593;DHT22;58294;42.988;20.338;2023-02-10T05:11:26;218.00;2150.40
70593;DHT22;58294;42.988;20.338;2023-02-10T05:13:52;218.00;2150.40
70593;DHT22;58294;42.988;20.338;2023-02-10T05:16:18;218.10;2150.40
70593;DHT22;58294;42.988;20.338;2023-02-10T05:18:44;218.10;2150.40
70593;DHT22;58294;42.988;20.338;2023-02-10T05:21:11;218.20;2150.40
70593;DHT22;58294;42.988;20.338;2023-02-10T05:23:38;218.20;2150.40
70593;DHT22;58294;42.988;20.338;2023-02-10T05:26:05;218.20;2150.40
70593;DHT22;58294;42.988;20.338;2023-02-10T05:28:31;218.10;2150.40
70593;DHT22;58294;42.988;20.338;2023-02-10T05:30:58;218.20;2150.40
70593;DHT22;58294;42.988;20.338;2023-02-10T05:33:23;218.20;2150.40
70593;DHT22;58294;42.988;20.338;2023-02-10T05:35:49;218.10;2150.40
70593;DHT22;58294;42.988;20.338;2023-02-10T05:38:15;218.20;2150.40
70593;DHT22;58294;42.988;20.338;2023-02-10T05:40:41;218.10;2150.40
70593;DHT22;58294;42.988;20.338;2023-02-10T05:43:06;218.10;2150.40
70593;DHT22;58294;42.988;20.338;2023-02-10T05:45:35;218.10;2150.40
70593;DHT22;58294;42.988;20.338;2023-02-10T05:48:01;218.20;2150.40
70593;DHT22;58294;42.988;20.338;2023-02-10T05:50:26;218.30;2150.40
70593;DHT22;58294;42.988;20.338;2023-02-10T05:52:52;218.30;2150.40
70593;DHT22;58294;42.988;20.338;2023-02-10T05:55:18;218.40;2150.40
70593;DHT22;58294;42.988;20.338;2023-02-10T05:57:43;218.40;2150.40
70593;DHT22;58294;42.988;20.338;2023-02-10T06:00:10;218.50;2150.40
70593;DHT22;58294;42.988;20.338;2023-02-10T06:02:36;243.20;2150.40
70593;DHT22;58294;42.988;20.338;2023-02-10T06:05:01;243.20;2150.40
70593;DHT22;58294;42.988;20.338;2023-02-10T06:07:27;243.20;2150.40
70593;DHT22;58294;42.988;20.338;2023-02-10T06:09:53;243.20;2150.40
70593;DHT22;58294;42.988;20.338;2023-02-10T06:12:19;243.20;2150.40
70593;DHT22;58294;42.988;20.338;2023-02-10T06:14:45;243.20;2150.40
70593;DHT22;58294;42.988;20.338;2023-02-10T06:17:10;218.50;2150.40
70593;DHT22;58294;42.988;20.338;2023-02-10T06:19:37;218.50;2150.40
70593;DHT22;58294;42.988;20.338;2023-02-10T06:22:03;218.40;2150.40
70593;DHT22;58294;42.988;20.338;2023-02-10T06:24:29;218.40;2150.40
70593;DHT22;58294;42.988;20.338;2023-02-10T06:26:55;218.40;2150.40
70593;DHT22;58294;42.988;20.338;2023-02-10T06:29:21;218.40;2150.40
70593;DHT22;58294;42.988;20.338;2023-02-10T06:31:47;218.30;2150.40
70593;DHT22;58294;42.988;20.338;2023-02-10T06:34:12;218.30;2150.40
70593;DHT22;58294;42.988;20.338;2023-02-10T06:36:38;218.20;2150.40
70593;DHT22;58294;42.988;20.338;2023-02-10T06:39:04;218.20;2150.40
70593;DHT22;58294;42.988;20.338;2023-02-10T06:41:31;218.10;2150.40
70593;DHT22;58294;42.988;20.338;2023-02-10T06:43:57;218.00;2150.40
70593;DHT22;58294;42.988;20.338;2023-02-10T06:46:23;217.90;2150.40
70593;DHT22;58294;42.988;20.338;2023-02-10T06:48:49;217.80;2150.40
70593;DHT22;58294;42.988;20.338;2023-02-10T06:51:15;217.60;2176.00
70593;DHT22;58294;42.988;20.338;2023-02-10T06:53:41;192.90;2176.00
70593;DHT22;58294;42.988;20.338;2023-02-10T06:56:08;192.80;2176.00
70593;DHT22;58294;42.988;20.338;2023-02-10T06:58:33;192.70;2176.00
70593;DHT22;58294;42.988;20.338;2023-02-10T07:00:59;192.60;2176.00
70593;DHT22;58294;42.988;20.338;2023-02-10T07:03:26;192.50;2176.00
70593;DHT22;58294;42.988;20.338;2023-02-10T07:05:52;192.40;2176.00
70593;DHT22;58294;42.988;20.338;2023-02-10T07:08:18;192.30;2176.00
70593;DHT22;58294;42.988;20.338;2023-02-10T07:10:44;192.20;2176.00
70593;DHT22;58294;42.988;20.338;2023-02-10T07:13:10;192.10;2176.00
70593;DHT22;58294;42.988;20.338;2023-02-10T07:15:35;192.00;2176.00
70593;DHT22;58294;42.988;20.338;2023-02-10T07:18:01;167.30;2176.00
70593;DHT22;58294;42.988;20.338;2023-02-10T07:20:27;167.20;2176.00
70593;DHT22;58294;42.988;20.338;2023-02-10T07:22:53;167.20;2176.00
70593;DHT22;58294;42.988;20.338;2023-02-10T07:25:18;167.10;2176.00
70593;DHT22;58294;42.988;20.338;2023-02-10T07:27:44;167.00;2176.00
70593;DHT22;58294;42.988;20.338;2023-02-10T07:30:12;167.00;2176.00
70593;DHT22;58294;42.988;20.338;2023-02-10T07:32:38;166.90;2176.00
70593;DHT22;58294;42.988;20.338;2023-02-10T07:35:04;166.80;2176.00
70593;DHT22;58294;42.988;20.338;2023-02-10T07:37:30;166.70;2176.00
70593;DHT22;58294;42.988;20.338;2023-02-10T07:39:57;166.60;2176.00
70593;DHT22;58294;42.988;20.338;2023-02-10T07:42:23;166.50;2176.00
70593;DHT22;58294;42.988;20.338;2023-02-10T07:44:48;166.40;2176.00
70593;DHT22;58294;42.988;20.338;2023-02-10T07:47:14;166.40;2176.00
70593;DHT22;58294;42.988;20.338;2023-02-10T07:49:40;141.70;2176.00
70593;DHT22;58294;42.988;20.338;2023-02-10T07:52:06;141.60;2176.00
70593;DHT22;58294;42.988;20.338;2023-02-10T07:54:31;141.40;2176.00
70593;DHT22;58294;42.988;20.338;2023-02-10T07:56:57;141.30;2176.00
70593;DHT22;58294;42.988;20.338;2023-02-10T07:59:23;141.20;2176.00
70593;DHT22;58294;42.988;20.338;2023-02-10T08:01:49;141.00;2176.00
70593;DHT22;58294;42.988;20.338;2023-02-10T08:04:15;140.90;2176.00
70593;DHT22;58294;42.988;20.338;2023-02-10T08:06:41;140.80;2176.00
70593;DHT22;58294;42.988;20.338;2023-02-10T08:09:08;116.00;2176.00
70593;DHT22;58294;42.988;20.338;2023-02-10T08:11:33;116.00;2176.00
70593;DHT22;58294;42.988;20.338;2023-02-10T08:14:01;115.80;2176.00
70593;DHT22;58294;42.988;20.338;2023-02-10T08:16:27;115.80;2176.00
70593;DHT22;58294;42.988;20.338;2023-02-10T08:18:52;115.70;2176.00
70593;DHT22;58294;42.988;20.338;2023-02-10T08:21:18;115.60;2176.00
70593;DHT22;58294;42.988;20.338;2023-02-10T08:23:44;115.40;2176.00
70593;DHT22;58294;42.988;20.338;2023-02-10T08:26:12;115.30;2176.00
70593;DHT22;58294;42.988;20.338;2023-02-10T08:28:39;115.20;2176.00
70593;DHT22;58294;42.988;20.338;2023-02-10T08:31:07;90.50;2176.00
70593;DHT22;58294;42.988;20.338;2023-02-10T08:33:34;90.40;2176.00
70593;DHT22;58294;42.988;20.338;2023-02-10T08:36:05;90.30;2176.00
70593;DHT22;58294;42.988;20.338;2023-02-10T08:38:32;90.10;2150.40
70593;DHT22;58294;42.988;20.338;2023-02-10T08:40:59;90.00;2176.00
70593;DHT22;58294;42.988;20.338;2023-02-10T08:43:25;89.90;2176.00
70593;DHT22;58294;42.988;20.338;2023-02-10T08:45:51;89.70;2176.00
70593;DHT22;58294;42.988;20.338;2023-02-10T08:48:17;64.90;2176.00
70593;DHT22;58294;42.988;20.338;2023-02-10T08:50:44;64.70;2099.20
70593;DHT22;58294;42.988;20.338;2023-02-10T08:53:10;64.60;2073.60
70593;DHT22;58294;42.988;20.338;2023-02-10T08:55:36;64.50;1996.80
70593;DHT22;58294;42.988;20.338;2023-02-10T08:58:02;64.40;1971.20
70593;DHT22;58294;42.988;20.338;2023-02-10T09:00:28;64.20;1971.20
70593;DHT22;58294;42.988;20.338;2023-02-10T09:02:54;64.00;1945.60
70593;DHT22;58294;42.988;20.338;2023-02-10T09:05:20;39.20;1920.00
70593;DHT22;58294;42.988;20.338;2023-02-10T09:07:46;39.10;1894.40
70593;DHT22;58294;42.988;20.338;2023-02-10T09:10:12;38.90;1868.80
70593;DHT22;58294;42.988;20.338;2023-02-10T09:12:39;38.90;1868.80
70593;DHT22;58294;42.988;20.338;2023-02-10T09:15:05;38.70;1843.20
70593;DHT22;58294;42.988;20.338;2023-02-10T09:17:32;38.60;1817.60
70593;DHT22;58294;42.988;20.338;2023-02-10T09:33:46;38.50;1766.40
70593;DHT22;58294;42.988;20.338;2023-02-10T09:36:15;0.10;1638.40
70593;DHT22;58294;42.988;20.338;2023-02-10T09:38:41;0.10;1664.00
70593;DHT22;58294;42.988;20.338;2023-02-10T09:41:15;0.10;1689.60
70593;DHT22;58294;42.988;20.338;2023-02-10T09:43:57;0.20;1715.20
70593;DHT22;58294;42.988;20.338;2023-02-10T09:49:22;0.70;1664.00
70593;DHT22;58294;42.988;20.338;2023-02-10T09:52:15;0.70;1664.00
70593;DHT22;58294;42.988;20.338;2023-02-10T09:54:44;25.60;1740.80
70593;DHT22;58294;42.988;20.338;2023-02-10T09:57:17;26.20;1766.40
70593;DHT22;58294;42.988;20.338;2023-02-10T09:59:45;51.20;1689.60
70593;DHT22;58294;42.988;20.338;2023-02-10T10:02:39;51.70;1740.80
70593;DHT22;58294;42.988;20.338;2023-02-10T10:05:36;76.90;1715.20
70593;DHT22;58294;42.988;20.338;2023-02-10T10:08:10;77.50;1740.80
70593;DHT22;58294;42.988;20.338;2023-02-10T10:10:41;102.70;1715.20
70593;DHT22;58294;42.988;20.338;2023-02-10T10:13:14;103.10;1638.40
70593;DHT22;58294;42.988;20.338;2023-02-10T10:15:54;128.30;1664.00
70593;DHT22;58294;42.988;20.338;2023-02-10T10:18:41;128.80;1689.60
70593;DHT22;58294;42.988;20.338;2023-02-10T10:27:06;154.30;1587.20
70593;DHT22;58294;42.988;20.338;2023-02-10T10:32:16;179.70;1433.60
70593;DHT22;58294;42.988;20.338;2023-02-10T10:34:50;179.60;1382.40
70593;DHT22;58294;42.988;20.338;2023-02-10T10:37:20;179.70;1433.60
70593;DHT22;58294;42.988;20.338;2023-02-10T10:39:50;180.00;1408.00
70593;DHT22;58294;42.988;20.338;2023-02-10T10:42:24;180.00;1408.00
70593;DHT22;58294;42.988;20.338;2023-02-10T10:45:02;205.00;1433.60
70593;DHT22;58294;42.988;20.338;2023-02-10T10:47:36;205.30;1459.20
70593;DHT22;58294;42.988;20.338;2023-02-10T10:50:05;205.60;1356.80
70593;DHT22;58294;42.988;20.338;2023-02-10T11:06:16;205.50;1305.60
70593;DHT22;58294;42.988;20.338;2023-02-10T11:08:58;256.20;1177.60
70593;DHT22;58294;42.988;20.338;2023-02-10T11:11:41;256.10;1228.80
70593;DHT22;58294;42.988;20.338;2023-02-10T11:14:26;256.20;1228.80
70593;DHT22;58294;42.988;20.338;2023-02-10T11:16:57;256.00;1228.80
70593;DHT22;58294;42.988;20.338;2023-02-10T11:19:32;256.00;1177.60
70593;DHT22;58294;42.988;20.338;2023-02-10T11:21:59;256.30;1254.40
70593;DHT22;58294;42.988;20.338;2023-02-10T11:24:27;256.80;1280.00
70593;DHT22;58294;42.988;20.338;2023-02-10T11:27:06;281.60;1254.40
70593;DHT22;58294;42.988;20.338;2023-02-10T11:29:46;256.80;1203.20
70593;DHT22;58294;42.988;20.338;2023-02-10T11:32:24;281.60;1228.80
70593;DHT22;58294;42.988;20.338;2023-02-10T11:34:53;281.90;1254.40
70593;DHT22;58294;42.988;20.338;2023-02-10T11:37:29;281.90;1228.80
70593;DHT22;58294;42.988;20.338;2023-02-10T11:39:57;281.90;1203.20
70593;DHT22;58294;42.988;20.338;2023-02-10T11:42:27;282.00;1152.00
70593;DHT22;58294;42.988;20.338;2023-02-10T11:47:38;282.30;1228.80
70593;DHT22;58294;42.988;20.338;2023-02-10T11:50:20;282.30;1177.60
70593;DHT22;58294;42.988;20.338;2023-02-10T11:52:46;282.50;1228.80
70593;DHT22;58294;42.988;20.338;2023-02-10T11:55:14;307.20;1152.00
70593;DHT22;58294;42.988;20.338;2023-02-10T12:00:57;282.50;1126.40
70593;DHT22;58294;42.988;20.338;2023-02-10T12:21:49;230.50;1177.60
70593;DHT22;58294;42.988;20.338;2023-02-10T12:30:13;205.30;1177.60
70593;DHT22;58294;42.988;20.338;2023-02-10T12:41:36;204.80;1126.40
70593;DHT22;58294;42.988;20.338;2023-02-10T12:46:50;179.90;1203.20
70593;DHT22;58294;42.988;20.338;2023-02-10T12:55:18;179.80;1203.20
70593;DHT22;58294;42.988;20.338;2023-02-10T12:58:01;179.70;1177.60
70593;DHT22;58294;42.988;20.338;2023-02-10T13:00:48;179.70;1228.80
70593;DHT22;58294;42.988;20.338;2023-02-10T13:03:32;179.60;1228.80
70593;DHT22;58294;42.988;20.338;2023-02-10T13:08:45;179.50;1254.40
70593;DHT22;58294;42.988;20.338;2023-02-10T13:11:54;179.50;1254.40
70593;DHT22;58294;42.988;20.338;2023-02-10T13:14:26;179.50;1254.40
70593;DHT22;58294;42.988;20.338;2023-02-10T13:16:57;179.40;1254.40
70593;DHT22;58294;42.988;20.338;2023-02-10T13:35:41;154.30;1254.40
70593;DHT22;58294;42.988;20.338;2023-02-10T13:38:13;154.20;1254.40
70593;DHT22;58294;42.988;20.338;2023-02-10T13:40:51;154.10;1254.40
70593;DHT22;58294;42.988;20.338;2023-02-10T13:43:53;154.10;1280.00
70593;DHT22;58294;42.988;20.338;2023-02-10T13:46:27;154.00;1280.00
70593;DHT22;58294;42.988;20.338;2023-02-10T13:48:54;153.80;1254.40
70593;DHT22;58294;42.988;20.338;2023-02-10T13:51:37;153.80;1228.80
70593;DHT22;58294;42.988;20.338;2023-02-10T13:54:04;153.70;1254.40
70593;DHT22;58294;42.988;20.338;2023-02-10T13:56:32;153.70;1254.40
70593;DHT22;58294;42.988;20.338;2023-02-10T14:01:42;153.70;1254.40
70593;DHT22;58294;42.988;20.338;2023-02-10T14:06:45;153.60;1280.00
70593;DHT22;58294;42.988;20.338;2023-02-10T14:09:41;128.90;1254.40
70593;DHT22;58294;42.988;20.338;2023-02-10T14:12:24;128.80;1280.00
70593;DHT22;58294;42.988;20.338;2023-02-10T14:14:51;128.80;1280.00
70593;DHT22;58294;42.988;20.338;2023-02-10T14:17:26;128.80;1280.00
70593;DHT22;58294;42.988;20.338;2023-02-10T14:19:58;128.90;1305.60
70593;DHT22;58294;42.988;20.338;2023-02-10T14:22:30;128.70;1280.00
70593;DHT22;58294;42.988;20.338;2023-02-10T14:25:17;128.70;1280.00
70593;DHT22;58294;42.988;20.338;2023-02-10T14:27:52;128.50;1280.00
70593;DHT22;58294;42.988;20.338;2023-02-10T14:30:23;128.50;1280.00
70593;DHT22;58294;42.988;20.338;2023-02-10T14:32:50;128.40;1280.00
70593;DHT22;58294;42.988;20.338;2023-02-10T14:35:20;128.30;1280.00
70593;DHT22;58294;42.988;20.338;2023-02-10T14:37:52;128.20;1280.00
70593;DHT22;58294;42.988;20.338;2023-02-10T14:40:19;128.20;1305.60
70593;DHT22;58294;42.988;20.338;2023-02-10T14:42:45;128.20;1280.00
70593;DHT22;58294;42.988;20.338;2023-02-10T14:45:22;128.20;1280.00
70593;DHT22;58294;42.988;20.338;2023-02-10T14:47:49;128.20;1280.00
70593;DHT22;58294;42.988;20.338;2023-02-10T14:50:30;128.10;1280.00
70593;DHT22;58294;42.988;20.338;2023-02-10T14:52:57;128.00;1280.00
70593;DHT22;58294;42.988;20.338;2023-02-10T14:55:25;128.00;1280.00
70593;DHT22;58294;42.988;20.338;2023-02-10T14:57:51;128.00;1305.60
70593;DHT22;58294;42.988;20.338;2023-02-10T15:00:17;128.00;1305.60
70593;DHT22;58294;42.988;20.338;2023-02-10T15:02:48;103.30;1280.00
70593;DHT22;58294;42.988;20.338;2023-02-10T15:05:18;103.30;1280.00
70593;DHT22;58294;42.988;20.338;2023-02-10T15:07:49;103.30;1280.00
70593;DHT22;58294;42.988;20.338;2023-02-10T15:12:52;103.30;1280.00
70593;DHT22;58294;42.988;20.338;2023-02-10T15:18:00;103.20;1280.00
70593;DHT22;58294;42.988;20.338;2023-02-10T15:20:31;103.20;1280.00
70593;DHT22;58294;42.988;20.338;2023-02-10T15:38:31;103.00;1280.00
70593;DHT22;58294;42.988;20.338;2023-02-10T15:40:57;102.90;1280.00
70593;DHT22;58294;42.988;20.338;2023-02-10T15:43:27;102.90;1280.00
70593;DHT22;58294;42.988;20.338;2023-02-10T15:46:14;102.90;1280.00
70593;DHT22;58294;42.988;20.338;2023-02-10T15:48:40;102.80;1280.00
70593;DHT22;58294;42.988;20.338;2023-02-10T15:51:22;102.80;1280.00
70593;DHT22;58294;42.988;20.338;2023-02-10T15:53:50;102.70;1280.00
70593;DHT22;58294;42.988;20.338;2023-02-10T15:56:16;102.70;1280.00
70593;DHT22;58294;42.988;20.338;2023-02-10T15:58:42;102.60;1280.00
70593;DHT22;58294;42.988;20.338;2023-02-10T16:01:08;102.50;1280.00
70593;DHT22;58294;42.988;20.338;2023-02-10T16:03:34;102.40;1280.00
70593;DHT22;58294;42.988;20.338;2023-02-10T16:05:59;77.70;1305.60
70593;DHT22;58294;42.988;20.338;2023-02-10T16:08:27;77.60;1305.60
70593;DHT22;58294;42.988;20.338;2023-02-10T16:10:54;77.50;1305.60
70593;DHT22;58294;42.988;20.338;2023-02-10T16:13:20;77.50;1305.60
70593;DHT22;58294;42.988;20.338;2023-02-10T16:15:47;77.40;1305.60
70593;DHT22;58294;42.988;20.338;2023-02-10T16:18:18;77.40;1331.20
70593;DHT22;58294;42.988;20.338;2023-02-10T16:20:45;77.30;1305.60
70593;DHT22;58294;42.988;20.338;2023-02-10T16:23:16;77.20;1305.60
70593;DHT22;58294;42.988;20.338;2023-02-10T16:25:43;77.20;1305.60
70593;DHT22;58294;42.988;20.338;2023-02-10T16:28:14;77.00;1331.20
70593;DHT22;58294;42.988;20.338;2023-02-10T16:30:40;77.00;1331.20
70593;DHT22;58294;42.988;20.338;2023-02-10T16:33:06;76.90;1331.20
70593;DHT22;58294;42.988;20.338;2023-02-10T16:35:32;76.80;1331.20
70593;DHT22;58294;42.988;20.338;2023-02-10T16:37:58;76.80;1331.20
70593;DHT22;58294;42.988;20.338;2023-02-10T16:40:25;52.10;1331.20
70593;DHT22;58294;42.988;20.338;2023-02-10T16:42:51;52.10;1356.80
70593;DHT22;58294;42.988;20.338;2023-02-10T16:45:19;52.00;1356.80
70593;DHT22;58294;42.988;20.338;2023-02-10T16:47:45;52.00;1356.80
70593;DHT22;58294;42.988;20.338;2023-02-10T16:52:51;51.90;1356.80
70593;DHT22;58294;42.988;20.338;2023-02-10T16:55:17;51.80;1356.80
70593;DHT22;58294;42.988;20.338;2023-02-10T16:57:44;51.80;1356.80
70593;DHT22;58294;42.988;20.338;2023-02-10T17:00:11;51.70;1382.40
70593;DHT22;58294;42.988;20.338;2023-02-10T17:02:37;51.70;1356.80
70593;DHT22;58294;42.988;20.338;2023-02-10T17:05:05;51.60;1356.80
70593;DHT22;58294;42.988;20.338;2023-02-10T17:07:30;51.60;1382.40
70593;DHT22;58294;42.988;20.338;2023-02-10T17:09:56;51.50;1382.40
70593;DHT22;58294;42.988;20.338;2023-02-10T17:12:22;51.50;1382.40
70593;DHT22;58294;42.988;20.338;2023-02-10T17:14:48;51.40;1382.40
70593;DHT22;58294;42.988;20.338;2023-02-10T17:17:13;51.30;1382.40
70593;DHT22;58294;42.988;20.338;2023-02-10T17:19:40;51.30;1382.40
70593;DHT22;58294;42.988;20.338;2023-02-10T17:22:06;51.20;1382.40
70593;DHT22;58294;42.988;20.338;2023-02-10T17:24:32;51.20;1382.40
70593;DHT22;58294;42.988;20.338;2023-02-10T17:26:57;26.50;1356.80
70593;DHT22;58294;42.988;20.338;2023-02-10T17:29:23;26.50;1356.80
70593;DHT22;58294;42.988;20.338;2023-02-10T17:31:49;26.40;1356.80